createdAt,value
2019-01-29T00:01:48.415Z,5.47
2019-01-29T00:04:18.225Z,4.67
2019-01-29T00:06:49.005Z,4.83
2019-01-29T00:09:18.647Z,4.30
2019-01-29T00:11:48.359Z,4.07
2019-01-29T00:14:18.078Z,4.40
2019-01-29T00:16:47.813Z,4.20
2019-01-29T00:19:17.507Z,4.10
2019-01-29T00:21:47.161Z,4.77
2019-01-29T00:24:16.971Z,4.30
2019-01-29T00:26:46.695Z,4.20
2019-01-29T00:29:16.463Z,4.30
2019-01-29T00:31:46.196Z,6.00
2019-01-29T00:34:15.896Z,6.00
2019-01-29T00:36:45.794Z,6.53
2019-01-29T00:39:15.613Z,4.87
2019-01-29T00:41:45.372Z,5.33
2019-01-29T00:44:15.061Z,5.30
2019-01-29T00:46:44.706Z,5.87
2019-01-29T00:49:14.398Z,7.07
2019-01-29T00:51:44.064Z,6.07
2019-01-29T00:54:13.707Z,6.63
2019-01-29T00:56:43.559Z,6.93
2019-01-29T00:59:13.339Z,7.00
2019-01-29T01:01:43.094Z,6.27
2019-01-29T01:04:12.901Z,5.77
2019-01-29T01:06:42.815Z,5.53
2019-01-29T01:09:12.649Z,4.97
2019-01-29T01:11:42.491Z,4.80
2019-01-29T01:14:12.199Z,5.57
2019-01-29T01:16:42.312Z,5.03
2019-01-29T01:19:12.124Z,5.23
2019-01-29T01:21:42.171Z,5.73
2019-01-29T01:24:11.831Z,4.93
2019-01-29T01:26:41.612Z,4.50
2019-01-29T01:29:11.360Z,3.53
2019-01-29T01:31:41.083Z,4.00
2019-01-29T01:34:10.864Z,4.90
2019-01-29T01:36:40.801Z,4.80
2019-01-29T01:39:10.817Z,4.53
2019-01-29T01:41:40.489Z,4.77
2019-01-29T01:44:10.257Z,5.00
2019-01-29T01:46:39.930Z,4.73
2019-01-29T01:49:09.702Z,5.43
2019-01-29T01:51:39.482Z,4.20
2019-01-29T01:54:09.128Z,6.23
2019-01-29T01:56:38.878Z,5.23
2019-01-29T01:59:08.629Z,4.83
2019-01-29T02:01:38.430Z,5.03
2019-01-29T02:04:08.164Z,5.17
2019-01-29T02:06:37.841Z,4.83
2019-01-29T02:09:09.524Z,5.67
2019-01-29T02:11:39.268Z,5.03
2019-01-29T02:14:08.986Z,5.37
2019-01-29T02:16:38.671Z,5.10
2019-01-29T02:19:08.484Z,4.50
2019-01-29T02:21:38.171Z,5.30
2019-01-29T02:24:07.902Z,5.20
2019-01-29T02:26:37.547Z,5.47
2019-01-29T02:29:07.224Z,5.30
2019-01-29T02:31:36.955Z,5.23
2019-01-29T02:34:06.816Z,5.97
2019-01-29T02:36:36.624Z,4.93
2019-01-29T02:39:08.592Z,4.60
2019-01-29T02:41:38.936Z,5.03
2019-01-29T02:44:08.824Z,5.43
2019-01-29T02:46:38.565Z,4.33
2019-01-29T02:49:08.349Z,4.97
2019-01-29T02:51:38.015Z,5.73
2019-01-29T02:54:07.866Z,4.77
2019-01-29T02:56:38.332Z,4.60
2019-01-29T02:59:07.978Z,4.20
2019-01-29T03:01:37.664Z,4.43
2019-01-29T03:04:07.395Z,4.13
2019-01-29T03:06:37.406Z,4.87
2019-01-29T03:09:09.370Z,4.60
2019-01-29T03:11:39.068Z,4.40
2019-01-29T03:14:08.946Z,4.30
2019-01-29T03:16:38.771Z,4.53
2019-01-29T03:19:08.563Z,4.43
2019-01-29T03:21:38.246Z,4.57
2019-01-29T03:24:07.987Z,4.50
2019-01-29T03:26:37.692Z,4.63
2019-01-29T03:29:07.504Z,5.03
2019-01-29T03:31:37.285Z,4.43
2019-01-29T03:34:07.022Z,4.80
2019-01-29T03:36:36.774Z,5.50
2019-01-29T03:39:08.831Z,5.40
2019-01-29T03:41:38.620Z,5.63
2019-01-29T03:44:08.543Z,5.17
2019-01-29T03:46:38.258Z,6.17
2019-01-29T03:49:08.064Z,5.50
2019-01-29T03:51:37.720Z,6.10
2019-01-29T03:54:07.732Z,5.80
2019-01-29T03:56:37.453Z,5.73
2019-01-29T03:59:07.304Z,5.63
2019-01-29T04:01:37.052Z,5.30
2019-01-29T04:04:06.818Z,5.73
2019-01-29T04:06:36.533Z,5.63
2019-01-29T04:09:09.086Z,5.17
2019-01-29T04:11:38.783Z,6.10
2019-01-29T04:14:08.670Z,6.30
2019-01-29T04:16:38.415Z,7.20
2019-01-29T04:19:08.222Z,5.97
2019-01-29T04:21:38.061Z,6.20
2019-01-29T04:24:07.692Z,7.00
2019-01-29T04:26:37.389Z,5.60
2019-01-29T04:29:07.187Z,5.90
2019-01-29T04:31:36.875Z,6.33
2019-01-29T04:34:06.721Z,6.20
2019-01-29T04:36:37.031Z,6.77
2019-01-29T04:39:08.717Z,6.60
2019-01-29T04:41:38.528Z,7.17
2019-01-29T04:44:08.381Z,6.20
2019-01-29T04:46:38.079Z,7.83
2019-01-29T04:49:07.751Z,7.63
2019-01-29T04:51:37.461Z,7.57
2019-01-29T04:54:07.180Z,6.97
2019-01-29T04:56:36.872Z,7.50
2019-01-29T04:59:06.752Z,8.57
2019-01-29T05:01:36.518Z,8.10
2019-01-29T05:04:06.782Z,8.63
2019-01-29T05:06:36.453Z,9.67
2019-01-29T05:09:08.907Z,10.50
2019-01-29T05:11:38.666Z,11.10
2019-01-29T05:14:08.405Z,12.20
2019-01-29T05:16:38.127Z,12.73
2019-01-29T05:19:07.875Z,13.13
2019-01-29T05:21:37.709Z,13.47
2019-01-29T05:24:07.572Z,15.07
2019-01-29T05:26:37.266Z,15.63
2019-01-29T05:29:07.274Z,16.60
2019-01-29T05:31:38.242Z,15.77
2019-01-29T05:34:08.193Z,15.87
2019-01-29T05:36:37.904Z,18.43
2019-01-29T05:39:09.829Z,17.50
2019-01-29T05:41:39.648Z,16.90
2019-01-29T05:44:09.537Z,16.57
2019-01-29T05:46:39.328Z,17.57
2019-01-29T05:49:09.104Z,17.43
2019-01-29T05:51:40.591Z,16.13
2019-01-29T05:54:16.093Z,16.93
2019-01-29T05:56:42.004Z,17.47
2019-01-29T05:59:11.707Z,17.63
2019-01-29T06:01:41.505Z,16.13
2019-01-29T06:04:11.328Z,17.60
2019-01-29T06:06:41.046Z,17.77
2019-01-29T06:09:10.768Z,17.50
2019-01-29T06:11:40.454Z,18.10
2019-01-29T06:14:10.266Z,17.70
2019-01-29T06:16:40.029Z,18.43
2019-01-29T06:19:09.806Z,18.20
2019-01-29T06:21:39.644Z,18.27
2019-01-29T06:24:09.614Z,19.10
2019-01-29T06:26:39.447Z,19.67
2019-01-29T06:29:09.162Z,19.50
2019-01-29T06:31:39.052Z,21.30
2019-01-29T06:34:08.971Z,19.50
2019-01-29T06:36:38.795Z,20.63
2019-01-29T06:39:08.953Z,21.67
2019-01-29T06:41:38.713Z,21.40
2019-01-29T06:44:08.386Z,21.53
2019-01-29T06:46:38.200Z,22.70
2019-01-29T06:49:08.195Z,22.40
2019-01-29T06:51:37.942Z,21.37
2019-01-29T06:54:07.796Z,21.07
2019-01-29T06:56:37.448Z,22.70
2019-01-29T06:59:07.302Z,22.83
2019-01-29T07:01:37.058Z,21.87
2019-01-29T07:04:06.842Z,22.07
2019-01-29T07:06:38.076Z,20.23
2019-01-29T07:09:09.672Z,20.17
2019-01-29T07:11:39.547Z,20.90
2019-01-29T07:14:09.425Z,21.63
2019-01-29T07:16:40.732Z,20.90
2019-01-29T07:19:12.094Z,20.63
2019-01-29T07:21:42.513Z,20.23
2019-01-29T07:24:12.598Z,21.30
2019-01-29T07:26:42.249Z,20.27
2019-01-29T07:29:11.958Z,21.57
2019-01-29T07:31:41.753Z,20.50
2019-01-29T07:34:11.450Z,20.93
2019-01-29T07:36:41.106Z,22.43
2019-01-29T07:39:11.961Z,20.37
2019-01-29T07:41:41.732Z,21.23
2019-01-29T07:44:11.484Z,22.23
2019-01-29T07:46:41.399Z,20.90
2019-01-29T07:49:11.085Z,21.33
2019-01-29T07:51:40.934Z,22.10
2019-01-29T07:54:10.642Z,20.83
2019-01-29T07:56:40.317Z,21.33
2019-01-29T07:59:10.046Z,21.47
2019-01-29T08:01:39.991Z,21.77
2019-01-29T08:04:09.772Z,21.93
2019-01-29T08:06:39.643Z,21.60
2019-01-29T08:09:10.760Z,21.50
2019-01-29T08:11:40.525Z,22.83
2019-01-29T08:14:10.445Z,21.80
2019-01-29T08:16:40.228Z,20.70
2019-01-29T08:19:09.892Z,22.20
2019-01-29T08:21:39.644Z,20.73
2019-01-29T08:24:09.465Z,21.90
2019-01-29T08:26:39.267Z,19.90
2019-01-29T08:29:09.026Z,19.50
2019-01-29T08:31:38.974Z,19.93
2019-01-29T08:34:08.846Z,17.97
2019-01-29T08:36:38.575Z,19.67
2019-01-29T08:39:09.161Z,18.37
2019-01-29T08:41:38.874Z,18.40
2019-01-29T08:44:08.767Z,18.27
2019-01-29T08:46:38.695Z,18.07
2019-01-29T08:49:08.683Z,17.27
2019-01-29T08:51:38.598Z,17.37
2019-01-29T08:54:08.453Z,16.97
2019-01-29T08:56:38.152Z,15.07
2019-01-29T08:59:07.865Z,14.43
2019-01-29T09:01:37.641Z,14.13
2019-01-29T09:04:07.461Z,15.00
2019-01-29T09:06:37.195Z,15.63
2019-01-29T09:09:09.479Z,14.20
2019-01-29T09:11:39.211Z,13.40
2019-01-29T09:14:09.167Z,13.63
2019-01-29T09:16:38.885Z,13.60
2019-01-29T09:19:08.737Z,13.33
2019-01-29T09:21:38.514Z,14.30
2019-01-29T09:24:08.494Z,13.20
2019-01-29T09:26:38.220Z,13.17
2019-01-29T09:29:07.990Z,13.27
2019-01-29T09:31:37.846Z,13.57
2019-01-29T09:34:07.603Z,13.63
2019-01-29T09:36:37.410Z,13.37
2019-01-29T09:39:11.568Z,13.77
2019-01-29T09:41:42.055Z,13.60
2019-01-29T09:44:11.850Z,12.40
2019-01-29T09:46:41.709Z,13.43
2019-01-29T09:49:11.577Z,13.07
2019-01-29T09:51:41.300Z,12.60
2019-01-29T09:54:11.619Z,13.33
2019-01-29T09:56:41.361Z,11.97
2019-01-29T09:59:11.472Z,12.37
2019-01-29T10:01:41.324Z,10.27
2019-01-29T10:04:11.032Z,11.60
2019-01-29T10:06:41.008Z,12.77
2019-01-29T10:09:10.932Z,11.00
2019-01-29T10:11:40.703Z,12.70
2019-01-29T10:14:10.427Z,12.97
2019-01-29T10:16:40.209Z,11.90
2019-01-29T10:19:09.960Z,12.37
2019-01-29T10:21:39.850Z,12.27
2019-01-29T10:24:09.492Z,11.77
2019-01-29T10:26:39.270Z,10.40
2019-01-29T10:29:09.165Z,10.83
2019-01-29T10:31:38.956Z,11.83
2019-01-29T10:34:08.737Z,11.37
2019-01-29T10:36:38.564Z,11.40
2019-01-29T10:39:10.950Z,10.67
2019-01-29T10:41:40.739Z,11.03
2019-01-29T10:44:10.438Z,10.50
2019-01-29T10:46:40.182Z,10.17
2019-01-29T10:49:10.183Z,9.43
2019-01-29T10:51:39.905Z,9.30
2019-01-29T10:54:09.735Z,9.90
2019-01-29T10:56:39.541Z,9.93
2019-01-29T10:59:09.467Z,9.63
2019-01-29T11:01:39.216Z,9.07
2019-01-29T11:04:09.207Z,8.93
2019-01-29T11:06:38.954Z,9.23
2019-01-29T11:09:12.023Z,8.87
2019-01-29T11:11:41.897Z,8.33
2019-01-29T11:14:11.622Z,9.70
2019-01-29T11:16:41.512Z,8.70
2019-01-29T11:19:11.367Z,8.53
2019-01-29T11:21:41.130Z,8.00
2019-01-29T11:24:10.848Z,7.00
2019-01-29T11:26:40.641Z,7.77
2019-01-29T11:29:10.731Z,6.57
2019-01-29T11:31:40.499Z,6.67
2019-01-29T11:34:10.211Z,6.63
2019-01-29T11:36:40.032Z,6.47
2019-01-29T11:39:10.993Z,5.63
2019-01-29T11:41:41.057Z,5.33
2019-01-29T11:44:10.713Z,6.73
2019-01-29T11:46:40.544Z,6.00
2019-01-29T11:49:10.530Z,5.10
2019-01-29T11:51:40.239Z,5.80
2019-01-29T11:54:09.918Z,5.63
2019-01-29T11:56:39.788Z,5.13
2019-01-29T11:59:09.607Z,6.17
2019-01-29T12:01:39.422Z,5.70
2019-01-29T12:04:09.357Z,5.00
2019-01-29T12:06:39.136Z,5.33
2019-01-29T12:09:09.947Z,5.47
2019-01-29T12:11:39.797Z,5.03
2019-01-29T12:14:09.581Z,5.70
2019-01-29T12:16:39.360Z,5.63
2019-01-29T12:19:09.221Z,6.47
2019-01-29T12:21:39.004Z,6.87
2019-01-29T12:24:11.211Z,6.10
2019-01-29T12:26:40.824Z,4.90
2019-01-29T12:29:10.538Z,4.00
2019-01-29T12:31:40.423Z,4.13
2019-01-29T12:34:10.081Z,4.27
2019-01-29T12:36:39.921Z,4.47
2019-01-29T12:39:10.250Z,4.33
2019-01-29T12:41:39.974Z,4.67
2019-01-29T12:44:09.803Z,4.37
2019-01-29T12:46:39.603Z,3.10
2019-01-29T12:49:09.393Z,3.40
2019-01-29T12:51:40.465Z,3.40
2019-01-29T12:54:10.542Z,4.20
2019-01-29T12:56:40.302Z,4.13
2019-01-29T12:59:10.156Z,3.80
2019-01-29T13:01:39.938Z,4.30
2019-01-29T13:04:09.780Z,3.63
2019-01-29T13:06:39.671Z,2.90
2019-01-29T13:09:10.969Z,3.43
2019-01-29T13:11:40.630Z,2.77
2019-01-29T13:14:10.742Z,3.07
2019-01-29T13:16:40.475Z,3.63
2019-01-29T13:19:10.366Z,3.57
2019-01-29T13:21:40.198Z,3.03
2019-01-29T13:24:09.928Z,2.63
2019-01-29T13:26:39.721Z,3.73
2019-01-29T13:29:09.595Z,2.40
2019-01-29T13:31:39.687Z,3.27
2019-01-29T13:34:09.610Z,2.87
2019-01-29T13:36:40.487Z,2.60
2019-01-29T13:39:10.668Z,2.73
2019-01-29T13:41:40.441Z,3.17
2019-01-29T13:44:10.355Z,3.20
2019-01-29T13:46:40.054Z,2.93
2019-01-29T13:49:09.792Z,2.67
2019-01-29T13:51:39.924Z,2.47
2019-01-29T13:54:09.593Z,2.53
2019-01-29T13:56:39.425Z,2.67
2019-01-29T13:59:09.234Z,2.60
2019-01-29T14:01:38.929Z,2.67
2019-01-29T14:04:08.643Z,3.23
2019-01-29T14:06:38.369Z,2.20
2019-01-29T14:09:09.116Z,2.43
2019-01-29T14:11:39.096Z,2.50
2019-01-29T14:14:09.053Z,1.93
2019-01-29T14:16:38.774Z,2.53
2019-01-29T14:19:08.623Z,2.30
2019-01-29T14:21:38.276Z,2.07
2019-01-29T14:24:08.206Z,2.30
2019-01-29T14:26:37.864Z,2.30
2019-01-29T14:29:07.713Z,2.87
2019-01-29T14:31:37.459Z,2.37
2019-01-29T14:34:07.399Z,2.63
2019-01-29T14:36:37.135Z,2.30
2019-01-29T14:39:19.916Z,3.20
2019-01-29T14:41:49.670Z,3.47
2019-01-29T14:44:19.542Z,2.90
2019-01-29T14:46:49.362Z,2.70
2019-01-29T14:49:19.016Z,2.83
2019-01-29T14:51:48.829Z,2.77
2019-01-29T14:54:18.828Z,2.83
2019-01-29T14:56:56.325Z,2.50
2019-01-29T14:59:19.930Z,3.00
2019-01-29T15:01:50.013Z,3.13
2019-01-29T15:04:19.706Z,2.70
2019-01-29T15:06:49.778Z,2.67
2019-01-29T15:09:19.543Z,2.87
2019-01-29T15:11:49.379Z,3.50
2019-01-29T15:14:38.169Z,3.97
2019-01-29T15:22:08.557Z,3.30
2019-01-29T15:24:38.583Z,3.40
2019-01-29T15:27:08.655Z,3.27
2019-01-29T15:29:38.543Z,3.93
2019-01-29T15:32:08.333Z,3.40
2019-01-29T15:34:38.023Z,3.10
2019-01-29T15:37:07.904Z,3.10
2019-01-29T15:39:37.671Z,3.10
2019-01-29T15:42:07.538Z,2.97
2019-01-29T15:44:37.278Z,3.43
2019-01-29T15:47:07.184Z,3.03
2019-01-29T15:49:36.904Z,3.20
2019-01-29T15:52:07.139Z,3.13
2019-01-29T15:54:36.862Z,2.93
2019-01-29T15:57:14.003Z,3.00
2019-01-29T15:59:43.123Z,3.50
2019-01-29T16:02:10.119Z,3.30
2019-01-29T16:04:39.933Z,3.40
2019-01-29T16:07:09.753Z,3.23
2019-01-29T16:09:39.436Z,3.00
2019-01-29T16:12:09.093Z,3.77
2019-01-29T16:14:38.842Z,3.63
2019-01-29T16:17:08.741Z,3.10
2019-01-29T16:19:38.481Z,3.13
2019-01-29T16:22:08.240Z,3.10
2019-01-29T16:24:37.988Z,3.37
2019-01-29T16:27:07.661Z,3.53
2019-01-29T16:29:37.434Z,3.50
2019-01-29T16:32:07.501Z,3.50
2019-01-29T16:34:37.381Z,8.90
2019-01-29T16:37:07.187Z,5.77
2019-01-29T16:39:36.858Z,3.63
2019-01-29T16:42:06.734Z,3.70
2019-01-29T16:44:36.391Z,4.53
2019-01-29T16:47:06.591Z,3.87
2019-01-29T16:49:36.248Z,3.77
2019-01-29T16:52:06.566Z,4.10
2019-01-29T16:54:36.290Z,3.90
2019-01-29T16:57:06.631Z,3.40
2019-01-29T16:59:36.413Z,4.27
2019-01-29T17:02:06.698Z,4.50
2019-01-29T17:04:36.373Z,3.67
2019-01-29T17:07:06.167Z,4.20
2019-01-29T17:09:35.880Z,4.07
2019-01-29T17:12:05.908Z,3.97
2019-01-29T17:14:35.679Z,3.90
2019-01-29T17:17:05.737Z,4.43
2019-01-29T17:19:35.479Z,4.67
2019-01-29T17:22:06.062Z,4.63
2019-01-29T17:24:35.769Z,4.20
2019-01-29T17:27:05.810Z,4.57
2019-01-29T17:29:35.455Z,4.30
2019-01-29T17:32:05.433Z,4.57
2019-01-29T17:34:35.167Z,4.57
2019-01-29T17:37:05.075Z,4.00
2019-01-29T17:39:34.803Z,4.30
2019-01-29T17:42:04.683Z,4.07
2019-01-29T17:44:35.656Z,4.63
2019-01-29T17:47:05.575Z,3.83
2019-01-29T17:49:35.274Z,4.33
2019-01-29T17:52:05.310Z,3.80
2019-01-29T17:54:35.431Z,3.33
2019-01-29T17:57:06.174Z,3.70
2019-01-29T17:59:37.389Z,3.50
2019-01-29T18:02:08.731Z,3.90
2019-01-29T18:04:38.482Z,3.47
2019-01-29T18:07:08.272Z,3.77
2019-01-29T18:09:38.011Z,4.07
2019-01-29T18:12:07.677Z,3.60
2019-01-29T18:14:37.316Z,3.80
2019-01-29T18:17:07.017Z,3.43
2019-01-29T18:19:36.802Z,3.87
2019-01-29T18:22:06.710Z,3.43
2019-01-29T18:24:36.370Z,3.70
2019-01-29T18:27:06.271Z,3.80
2019-01-29T18:29:35.933Z,4.23
2019-01-29T18:32:05.849Z,3.40
2019-01-29T18:34:35.519Z,3.93
2019-01-29T18:37:05.534Z,3.70
2019-01-29T18:39:35.166Z,3.60
2019-01-29T18:42:06.327Z,4.00
2019-01-29T18:44:36.636Z,3.77
2019-01-29T18:47:06.672Z,4.27
2019-01-29T18:49:36.401Z,3.93
2019-01-29T18:52:06.332Z,4.50
2019-01-29T18:54:36.114Z,4.17
2019-01-29T18:57:05.953Z,4.60
2019-01-29T18:59:35.715Z,4.80
2019-01-29T19:02:05.741Z,4.87
2019-01-29T19:04:35.499Z,4.70
2019-01-29T19:07:05.616Z,4.33
2019-01-29T19:09:35.304Z,4.30
2019-01-29T19:12:05.469Z,4.20
2019-01-29T19:14:35.167Z,4.13
2019-01-29T19:17:04.948Z,4.53
2019-01-29T19:19:34.582Z,4.23
2019-01-29T19:22:05.936Z,4.23
2019-01-29T19:24:35.757Z,4.60
2019-01-29T19:27:05.602Z,4.60
2019-01-29T19:29:35.338Z,4.27
2019-01-29T19:32:05.268Z,5.10
2019-01-29T19:34:34.966Z,4.03
2019-01-29T19:37:04.835Z,3.97
2019-01-29T19:39:34.487Z,4.57
2019-01-29T19:42:04.249Z,3.70
2019-01-29T19:44:34.050Z,4.57
2019-01-29T19:47:03.822Z,3.83
2019-01-29T19:49:33.552Z,4.00
2019-01-29T19:52:04.771Z,3.90
2019-01-29T19:54:34.443Z,4.33
2019-01-29T19:57:04.305Z,4.07
2019-01-29T19:59:34.006Z,3.80
2019-01-29T20:02:03.699Z,3.97
2019-01-29T20:04:33.512Z,4.00
2019-01-29T20:07:03.378Z,3.67
2019-01-29T20:09:33.146Z,3.83
2019-01-29T20:12:03.228Z,4.40
2019-01-29T20:14:32.986Z,4.03
2019-01-29T20:17:03.490Z,3.90
2019-01-29T20:19:33.187Z,4.40
2019-01-29T20:22:02.878Z,4.27
2019-01-29T20:24:32.541Z,4.57
2019-01-29T20:27:02.248Z,3.97
2019-01-29T20:29:31.962Z,4.30
2019-01-29T20:32:02.783Z,4.40
2019-01-29T20:34:32.428Z,4.53
2019-01-29T20:37:02.235Z,4.53
2019-01-29T20:39:34.950Z,4.70
2019-01-29T20:42:03.688Z,4.53
2019-01-29T20:44:33.430Z,4.73
2019-01-29T20:47:03.201Z,4.37
2019-01-29T20:49:32.861Z,4.97
2019-01-29T20:52:02.532Z,5.13
2019-01-29T20:54:32.202Z,4.70
2019-01-29T20:57:01.884Z,5.00
2019-01-29T20:59:31.596Z,4.80
2019-01-29T21:02:03.214Z,5.60
2019-01-29T21:04:32.862Z,4.20
2019-01-29T21:07:03.100Z,6.13
2019-01-29T21:09:33.382Z,5.27
2019-01-29T21:12:03.330Z,5.17
2019-01-29T21:14:33.031Z,5.43
2019-01-29T21:17:02.804Z,6.40
2019-01-29T21:19:32.500Z,6.13
2019-01-29T21:22:02.334Z,6.70
2019-01-29T21:24:32.494Z,6.20
2019-01-29T21:27:02.200Z,6.40
2019-01-29T21:29:31.992Z,6.47
2019-01-29T21:32:01.862Z,6.20
2019-01-29T21:34:31.693Z,5.30
2019-01-29T21:37:01.357Z,5.80
2019-01-29T21:39:31.235Z,5.40
2019-01-29T21:42:00.878Z,4.70
2019-01-29T21:44:30.571Z,5.50
2019-01-29T21:47:00.294Z,4.17
2019-01-29T21:49:30.076Z,4.33
2019-01-29T21:51:59.807Z,4.27
2019-01-29T21:54:29.472Z,4.10
2019-01-29T21:56:59.208Z,4.00
2019-01-29T21:59:28.939Z,4.37
2019-01-29T22:01:58.650Z,4.30
2019-01-29T22:04:28.311Z,4.27
2019-01-29T22:06:58.135Z,3.53
2019-01-29T22:09:27.914Z,3.83
2019-01-29T22:11:57.831Z,3.43
2019-01-29T22:14:27.494Z,3.37
2019-01-29T22:16:57.271Z,3.43
2019-01-29T22:19:27.166Z,2.93
2019-01-29T22:21:56.888Z,3.50
2019-01-29T22:24:26.749Z,3.43
2019-01-29T22:26:56.418Z,3.50
2019-01-29T22:29:26.208Z,3.70
2019-01-29T22:31:56.019Z,3.00
2019-01-29T22:34:25.829Z,3.73
2019-01-29T22:36:55.652Z,3.03
2019-01-29T22:39:25.465Z,3.80
2019-01-29T22:41:55.321Z,3.40
2019-01-29T22:44:25.370Z,3.50
2019-01-29T22:46:55.126Z,3.53
2019-01-29T22:49:24.981Z,3.60
2019-01-29T22:51:54.686Z,3.90
2019-01-29T22:54:24.382Z,3.70
2019-01-29T22:56:54.207Z,3.33
2019-01-29T22:59:32.971Z,3.77
2019-01-29T23:01:55.702Z,3.57
2019-01-29T23:04:25.493Z,3.53
2019-01-29T23:06:55.204Z,3.20
2019-01-29T23:09:24.986Z,3.87
2019-01-29T23:11:54.726Z,3.57
2019-01-29T23:14:24.487Z,3.90
2019-01-29T23:16:54.201Z,3.60
2019-01-29T23:19:23.968Z,4.20
2019-01-29T23:21:53.705Z,4.40
2019-01-29T23:24:23.607Z,3.93
2019-01-29T23:26:53.278Z,3.97
2019-01-29T23:29:23.119Z,3.97
2019-01-29T23:31:52.851Z,3.97
2019-01-29T23:34:22.591Z,4.30
2019-01-29T23:36:52.327Z,3.47
2019-01-29T23:39:22.146Z,3.93
2019-01-29T23:41:51.903Z,3.50
2019-01-29T23:44:21.592Z,4.40
2019-01-29T23:46:51.338Z,4.37
2019-01-29T23:49:20.995Z,3.90
2019-01-29T23:51:50.732Z,3.93
2019-01-29T23:54:20.607Z,4.20
2019-01-29T23:56:50.366Z,3.83
2019-01-29T23:59:20.154Z,4.80
